Time;durP1;ratioP1;P1;durP2;ratioP2;P2;SDS_P1;SDS_P2;PMS_P1;PMS_P2;Temp;Humidity;BMP_temperature;BMP_pressure;BME280_temperature;BME280_humidity;BME280_pressure;Samples;Min_cycle;Max_cycle;Signal;HPM_P1;HPM_P2
2021/01/21 00:02:22;;;;;;;4.20;1.50;;;;;;;;;;5094747;28;20193;-46
2021/01/21 00:04:48;;;;;;;1.50;1.33;;;;;;;;;;5096235;28;20180;-46
2021/01/21 00:07:14;;;;;;;3.22;1.40;;;;;;;;;;5086220;28;20612;-46
2021/01/21 00:09:40;;;;;;;2.55;1.67;;;;;;;;;;5076324;28;20198;-46
2021/01/21 00:12:06;;;;;;;1.92;1.50;;;;;;;;;;5077848;28;20747;-46
2021/01/21 00:14:32;;;;;;;2.60;1.45;;;;;;;;;;5075713;28;20186;-46
2021/01/21 00:16:58;;;;;;;1.58;1.48;;;;;;;;;;5080308;28;20194;-45
2021/01/21 00:19:24;;;;;;;2.40;1.50;;;;;;;;;;5077290;28;20183;-46
2021/01/21 00:21:50;;;;;;;1.85;1.63;;;;;;;;;;5075985;28;20183;-46
2021/01/21 00:24:16;;;;;;;1.50;1.17;;;;;;;;;;5088829;28;20182;-46
2021/01/21 00:26:42;;;;;;;2.00;1.40;;;;;;;;;;5080792;28;20276;-46
2021/01/21 00:29:08;;;;;;;1.95;1.25;;;;;;;;;;5096459;28;20244;-45
2021/01/21 00:31:34;;;;;;;2.17;1.33;;;;;;;;;;5095454;28;20215;-46
2021/01/21 00:34:00;;;;;;;3.17;1.25;;;;;;;;;;5075996;28;20210;-46
2021/01/21 00:36:26;;;;;;;5.13;1.20;;;;;;;;;;5092516;28;20206;-46
2021/01/21 00:38:52;;;;;;;1.23;1.10;;;;;;;;;;5087095;28;20637;-46
2021/01/21 00:41:18;;;;;;;1.65;1.40;;;;;;;;;;5095955;28;20261;-46
2021/01/21 00:43:44;;;;;;;3.40;1.20;;;;;;;;;;5095776;28;20196;-46
2021/01/21 00:46:10;;;;;;;1.50;1.40;;;;;;;;;;5083811;28;20186;-46
2021/01/21 00:48:36;;;;;;;1.52;1.27;;;;;;;;;;5093131;28;20196;-46
2021/01/21 00:51:02;;;;;;;1.90;1.35;;;;;;;;;;5114197;28;20191;-46
2021/01/21 00:53:28;;;;;;;7.45;1.33;;;;;;;;;;5095972;28;20717;-46
2021/01/21 00:55:54;;;;;;;3.03;1.45;;;;;;;;;;5080423;28;20359;-46
2021/01/21 00:58:20;;;;;;;1.65;1.40;;;;;;;;;;5077893;28;20189;-46
2021/01/21 01:00:46;;;;;;;1.45;1.20;;;;;;;;;;5095671;28;20204;-47
2021/01/21 01:03:12;;;;;;;1.38;1.10;;;;;;;;;;5093934;28;20269;-46
2021/01/21 01:05:38;;;;;;;1.40;1.25;;;;;;;;;;5092862;28;20257;-46
2021/01/21 01:08:05;;;;;;;1.23;1.13;;;;;;;;;;5092992;28;20186;-45
2021/01/21 01:10:31;;;;;;;1.60;1.00;;;;;;;;;;5093314;28;20182;-46
2021/01/21 01:12:57;;;;;;;2.10;1.38;;;;;;;;;;5075589;28;20190;-45
2021/01/21 01:15:30;;;;;;;1.20;1.10;;;;;;;;;;5074406;28;20206;-46
2021/01/21 01:17:56;;;;;;;1.20;1.10;;;;;;;;;;5088622;28;20178;-46
2021/01/21 01:20:22;;;;;;;1.05;1.00;;;;;;;;;;5089613;28;20583;-45
2021/01/21 01:22:49;;;;;;;1.10;1.00;;;;;;;;;;5089693;28;20189;-46
2021/01/21 01:25:15;;;;;;;1.10;1.00;;;;;;;;;;5094328;28;20217;-46
2021/01/21 01:27:42;;;;;;;1.85;1.05;;;;;;;;;;5093184;28;20182;-46
2021/01/21 01:30:09;;;;;;;1.60;1.10;;;;;;;;;;5095272;28;20201;-46
2021/01/21 01:32:35;;;;;;;1.83;1.00;;;;;;;;;;5089148;28;20221;-46
2021/01/21 01:35:01;;;;;;;0.90;0.90;;;;;;;;;;5083172;28;20210;-46
2021/01/21 01:37:27;;;;;;;1.27;1.00;;;;;;;;;;5092748;28;20182;-46
2021/01/21 01:39:53;;;;;;;0.95;0.95;;;;;;;;;;5095376;28;20552;-46
2021/01/21 01:42:19;;;;;;;1.00;0.90;;;;;;;;;;5087847;28;20514;-46
2021/01/21 01:44:45;;;;;;;1.30;1.17;;;;;;;;;;5074298;28;20489;-46
2021/01/21 01:47:11;;;;;;;1.13;0.85;;;;;;;;;;5082587;28;20181;-46
2021/01/21 01:49:37;;;;;;;1.00;0.90;;;;;;;;;;5096292;28;20450;-46
2021/01/21 01:52:03;;;;;;;1.20;1.10;;;;;;;;;;5088344;28;20276;-46
2021/01/21 01:54:30;;;;;;;1.10;1.00;;;;;;;;;;5074000;28;20405;-46
2021/01/21 01:56:57;;;;;;;0.98;0.88;;;;;;;;;;5080262;28;20182;-46
2021/01/21 01:59:23;;;;;;;1.33;1.05;;;;;;;;;;5086001;28;20186;-46
2021/01/21 02:01:50;;;;;;;0.88;0.88;;;;;;;;;;5074449;28;20194;-46
2021/01/21 02:04:16;;;;;;;1.90;1.00;;;;;;;;;;5093959;28;20174;-46
2021/01/21 02:06:42;;;;;;;1.17;1.02;;;;;;;;;;5088841;28;20201;-46
2021/01/21 02:09:08;;;;;;;1.10;0.80;;;;;;;;;;5092196;28;20194;-47
2021/01/21 02:11:40;;;;;;;1.00;0.90;;;;;;;;;;5092550;28;20292;-46
2021/01/21 02:14:17;;;;;;;1.10;1.00;;;;;;;;;;5081226;28;20182;-46
2021/01/21 02:16:46;;;;;;;0.70;0.70;;;;;;;;;;5092504;28;20228;-46
2021/01/21 02:19:30;;;;;;;1.05;0.80;;;;;;;;;;5082975;28;20182;-46
2021/01/21 02:22:14;;;;;;;1.52;0.80;;;;;;;;;;5110528;28;20182;-46
2021/01/21 02:24:59;;;;;;;1.33;1.00;;;;;;;;;;5075284;28;20175;-46
2021/01/21 02:27:27;;;;;;;1.05;0.95;;;;;;;;;;5084445;28;20504;-46
2021/01/21 02:29:53;;;;;;;0.88;0.88;;;;;;;;;;5074188;28;20439;-46
2021/01/21 02:32:35;;;;;;;0.95;0.82;;;;;;;;;;5075919;28;20188;-46
2021/01/21 02:35:03;;;;;;;1.20;1.00;;;;;;;;;;5090286;28;20201;-46
2021/01/21 02:37:30;;;;;;;0.98;0.93;;;;;;;;;;5081276;28;20174;-46
2021/01/21 02:39:57;;;;;;;1.95;1.10;;;;;;;;;;5094341;28;20169;-47
2021/01/21 02:42:24;;;;;;;1.58;0.90;;;;;;;;;;5091716;28;20195;-46
2021/01/21 02:44:50;;;;;;;0.75;0.75;;;;;;;;;;5092776;28;20186;-45
2021/01/21 02:47:17;;;;;;;1.20;1.10;;;;;;;;;;5092235;28;20189;-45
2021/01/21 02:49:44;;;;;;;1.15;0.82;;;;;;;;;;5099188;28;20575;-46
2021/01/21 02:52:25;;;;;;;0.80;0.80;;;;;;;;;;5104045;28;20177;-46
2021/01/21 02:54:55;;;;;;;1.30;1.20;;;;;;;;;;5093246;28;20202;-46
2021/01/21 02:57:22;;;;;;;0.70;0.70;;;;;;;;;;5078618;28;20565;-46
2021/01/21 02:59:49;;;;;;;1.65;0.80;;;;;;;;;;5074465;28;20273;-46
2021/01/21 03:02:16;;;;;;;0.80;0.80;;;;;;;;;;5084033;28;20196;-47
2021/01/21 03:04:42;;;;;;;0.93;0.90;;;;;;;;;;5093029;28;20248;-46
2021/01/21 03:07:09;;;;;;;1.10;1.00;;;;;;;;;;5089868;28;20174;-46
2021/01/21 03:09:36;;;;;;;0.77;0.77;;;;;;;;;;5093640;28;20178;-46
2021/01/21 03:12:23;;;;;;;1.02;0.90;;;;;;;;;;5086476;28;20205;-46
2021/01/21 03:14:49;;;;;;;0.70;0.70;;;;;;;;;;5075001;28;20216;-46
2021/01/21 03:17:15;;;;;;;0.70;0.70;;;;;;;;;;5090480;28;20231;-46
2021/01/21 03:19:41;;;;;;;1.08;0.80;;;;;;;;;;5084717;28;20259;-47
2021/01/21 03:22:07;;;;;;;0.80;0.80;;;;;;;;;;5103684;28;20173;-47
2021/01/21 03:24:33;;;;;;;0.80;0.80;;;;;;;;;;5092825;28;20183;-46
2021/01/21 03:26:59;;;;;;;0.55;0.55;;;;;;;;;;5089916;28;20562;-46
2021/01/21 03:29:28;;;;;;;1.33;0.77;;;;;;;;;;5090859;28;20205;-46
2021/01/21 03:31:54;;;;;;;0.75;0.75;;;;;;;;;;5088325;28;20185;-46
2021/01/21 03:34:21;;;;;;;0.70;0.70;;;;;;;;;;5072708;28;20214;-46
2021/01/21 03:36:47;;;;;;;0.70;0.70;;;;;;;;;;5073278;28;20288;-46
2021/01/21 03:39:13;;;;;;;0.70;0.70;;;;;;;;;;5091015;28;20204;-46
2021/01/21 03:41:39;;;;;;;0.73;0.73;;;;;;;;;;5090699;28;20586;-46
2021/01/21 03:44:05;;;;;;;0.68;0.68;;;;;;;;;;5089125;28;20186;-46
2021/01/21 03:46:31;;;;;;;0.57;0.57;;;;;;;;;;5092706;28;20235;-46
2021/01/21 03:48:57;;;;;;;1.08;0.80;;;;;;;;;;5078020;28;20261;-46
2021/01/21 03:51:23;;;;;;;0.60;0.60;;;;;;;;;;5098029;28;20354;-46
2021/01/21 03:53:49;;;;;;;0.88;0.75;;;;;;;;;;5093559;28;20182;-46
2021/01/21 03:56:15;;;;;;;1.05;0.98;;;;;;;;;;5089029;28;20228;-46
2021/01/21 03:58:41;;;;;;;0.60;0.60;;;;;;;;;;5089955;28;20189;-46
2021/01/21 04:01:07;;;;;;;1.05;0.75;;;;;;;;;;5096079;28;20190;-46
2021/01/21 04:03:33;;;;;;;0.77;0.77;;;;;;;;;;5095143;28;20173;-46
2021/01/21 04:06:00;;;;;;;1.02;0.93;;;;;;;;;;5094441;28;20272;-46
2021/01/21 04:08:26;;;;;;;0.60;0.60;;;;;;;;;;5093355;28;20192;-46
2021/01/21 04:10:52;;;;;;;0.68;0.60;;;;;;;;;;5086072;28;20194;-46
2021/01/21 04:13:18;;;;;;;0.68;0.68;;;;;;;;;;5076308;28;20201;-46
2021/01/21 04:15:46;;;;;;;0.70;0.70;;;;;;;;;;5087467;28;20217;-46
2021/01/21 04:18:12;;;;;;;0.60;0.60;;;;;;;;;;5096310;28;20192;-46
2021/01/21 04:20:38;;;;;;;0.85;0.80;;;;;;;;;;5109971;28;20181;-47
2021/01/21 04:23:04;;;;;;;0.70;0.70;;;;;;;;;;5117046;28;20192;-46
2021/01/21 04:25:30;;;;;;;1.10;0.68;;;;;;;;;;5083736;28;20378;-46
2021/01/21 04:27:56;;;;;;;0.80;0.80;;;;;;;;;;5095589;28;20193;-46
2021/01/21 04:30:22;;;;;;;0.75;0.60;;;;;;;;;;5093199;28;20273;-46
2021/01/21 04:32:48;;;;;;;0.70;0.70;;;;;;;;;;5076254;28;20178;-46
2021/01/21 04:35:14;;;;;;;0.82;0.82;;;;;;;;;;5083769;28;20209;-46
2021/01/21 04:37:40;;;;;;;0.77;0.77;;;;;;;;;;5082237;28;20182;-45
2021/01/21 04:40:06;;;;;;;0.57;0.57;;;;;;;;;;5096307;28;20265;-47
2021/01/21 04:42:34;;;;;;;0.70;0.70;;;;;;;;;;5095442;28;20549;-46
2021/01/21 04:45:00;;;;;;;0.77;0.60;;;;;;;;;;5089216;28;20204;-46
2021/01/21 04:47:28;;;;;;;0.50;0.50;;;;;;;;;;5076909;28;20637;-46
2021/01/21 04:49:54;;;;;;;0.85;0.75;;;;;;;;;;5096022;28;20188;-46
2021/01/21 04:52:22;;;;;;;1.30;0.60;;;;;;;;;;5094383;28;20182;-46
2021/01/21 04:54:51;;;;;;;0.80;0.80;;;;;;;;;;5083499;28;20189;-46
2021/01/21 04:57:20;;;;;;;0.70;0.60;;;;;;;;;;5081743;28;20191;-46
2021/01/21 04:59:47;;;;;;;0.63;0.63;;;;;;;;;;5076460;28;20189;-46
2021/01/21 05:02:13;;;;;;;1.13;0.90;;;;;;;;;;5079670;28;20206;-46
2021/01/21 05:04:39;;;;;;;0.60;0.60;;;;;;;;;;5093545;28;20186;-45
2021/01/21 05:07:05;;;;;;;0.55;0.55;;;;;;;;;;5088372;28;20212;-46
2021/01/21 05:09:32;;;;;;;0.70;0.60;;;;;;;;;;5092681;28;20178;-46
2021/01/21 05:11:58;;;;;;;0.70;0.70;;;;;;;;;;5091236;28;20194;-46
2021/01/21 05:14:24;;;;;;;1.08;0.70;;;;;;;;;;5074601;28;20220;-46
2021/01/21 05:16:50;;;;;;;1.88;0.90;;;;;;;;;;5084258;28;20214;-46
2021/01/21 05:19:16;;;;;;;7.70;1.30;;;;;;;;;;5093074;28;20214;-46
2021/01/21 05:21:42;;;;;;;7.63;1.52;;;;;;;;;;5111689;28;20169;-46
2021/01/21 05:24:12;;;;;;;6.57;1.52;;;;;;;;;;5093984;28;20190;-46
2021/01/21 05:26:42;;;;;;;6.05;1.50;;;;;;;;;;5087328;28;20236;-46
2021/01/21 05:29:10;;;;;;;3.75;0.95;;;;;;;;;;5075236;28;20182;-46
2021/01/21 05:31:36;;;;;;;5.60;1.30;;;;;;;;;;5075327;28;20283;-46
2021/01/21 05:34:05;;;;;;;3.50;1.30;;;;;;;;;;5080618;28;20266;-47
2021/01/21 05:36:35;;;;;;;4.40;1.55;;;;;;;;;;5080974;28;20212;-46
2021/01/21 05:39:04;;;;;;;4.63;1.17;;;;;;;;;;5093716;28;20400;-46
2021/01/21 05:41:31;;;;;;;6.57;1.30;;;;;;;;;;5094568;28;20178;-46
2021/01/21 05:43:58;;;;;;;4.00;1.02;;;;;;;;;;5074363;28;20476;-46
2021/01/21 05:46:24;;;;;;;3.15;1.08;;;;;;;;;;5077146;28;20170;-46
2021/01/21 05:48:50;;;;;;;2.58;1.10;;;;;;;;;;5094092;28;20673;-46
2021/01/21 05:51:16;;;;;;;1.63;0.90;;;;;;;;;;5093897;28;20268;-46
2021/01/21 05:53:42;;;;;;;4.13;1.20;;;;;;;;;;5091881;28;20196;-45
2021/01/21 05:56:09;;;;;;;1.30;1.02;;;;;;;;;;5090573;28;20296;-46
2021/01/21 05:58:35;;;;;;;2.58;1.13;;;;;;;;;;5077007;28;20351;-46
2021/01/21 06:01:01;;;;;;;2.33;1.10;;;;;;;;;;5083467;28;20197;-47
2021/01/21 06:03:27;;;;;;;1.33;0.90;;;;;;;;;;5093410;28;20246;-46
2021/01/21 06:05:57;;;;;;;3.60;1.30;;;;;;;;;;5091005;28;20264;-46
2021/01/21 06:08:23;;;;;;;8.35;1.10;;;;;;;;;;5073246;28;20175;-45
2021/01/21 06:10:51;;;;;;;1.92;0.70;;;;;;;;;;5077444;28;20281;-46
2021/01/21 06:13:18;;;;;;;1.25;0.98;;;;;;;;;;5098643;28;20193;-46
2021/01/21 06:15:45;;;;;;;2.05;0.98;;;;;;;;;;5078888;28;20210;-46
2021/01/21 06:18:10;;;;;;;3.42;0.90;;;;;;;;;;5078241;28;20428;-46
2021/01/21 06:20:36;;;;;;;0.98;0.73;;;;;;;;;;5090498;28;20185;-46
2021/01/21 06:23:04;;;;;;;0.70;0.70;;;;;;;;;;5092713;28;20262;-46
2021/01/21 06:25:31;;;;;;;3.33;0.95;;;;;;;;;;5093564;28;20284;-46
2021/01/21 06:27:57;;;;;;;2.83;0.98;;;;;;;;;;5088082;28;20186;-46
2021/01/21 06:30:23;;;;;;;1.30;0.80;;;;;;;;;;5073493;28;20205;-46
2021/01/21 06:32:53;;;;;;;1.52;0.80;;;;;;;;;;5074909;28;20202;-46
2021/01/21 06:35:21;;;;;;;0.68;0.68;;;;;;;;;;5072979;28;20206;-46
2021/01/21 06:37:51;;;;;;;0.93;0.82;;;;;;;;;;5087987;28;20273;-46
2021/01/21 06:40:18;;;;;;;2.13;0.80;;;;;;;;;;5085566;28;20213;-46
2021/01/21 06:42:55;;;;;;;2.63;0.90;;;;;;;;;;5090425;28;20186;-46
2021/01/21 06:45:21;;;;;;;1.83;1.00;;;;;;;;;;5092791;28;20254;-46
2021/01/21 06:47:48;;;;;;;1.92;0.85;;;;;;;;;;5082547;28;20193;-46
2021/01/21 06:50:14;;;;;;;1.30;0.80;;;;;;;;;;5103406;28;20189;-46
2021/01/21 06:52:41;;;;;;;2.10;0.75;;;;;;;;;;5093203;28;20240;-46
2021/01/21 06:55:10;;;;;;;0.80;0.70;;;;;;;;;;5073514;28;20247;-46
2021/01/21 06:57:36;;;;;;;1.17;0.90;;;;;;;;;;5089406;28;20571;-46
2021/01/21 07:00:05;;;;;;;1.60;0.80;;;;;;;;;;5093431;28;20174;-46
2021/01/21 07:02:40;;;;;;;0.93;0.73;;;;;;;;;;5086871;28;20646;-46
2021/01/21 07:05:10;;;;;;;1.65;0.98;;;;;;;;;;5089075;28;20190;-46
2021/01/21 07:07:58;;;;;;;1.95;0.80;;;;;;;;;;5073311;28;20686;-46
2021/01/21 07:10:27;;;;;;;1.10;0.60;;;;;;;;;;5083706;28;20189;-46
2021/01/21 07:12:57;;;;;;;1.10;0.60;;;;;;;;;;5076258;28;20267;-46
2021/01/21 07:15:35;;;;;;;0.70;0.70;;;;;;;;;;5072846;28;20235;-46
2021/01/21 07:18:02;;;;;;;1.85;0.88;;;;;;;;;;5074439;28;20437;-46
2021/01/21 07:20:30;;;;;;;1.25;0.90;;;;;;;;;;5103834;28;20181;-46
2021/01/21 07:23:03;;;;;;;0.80;0.80;;;;;;;;;;5112337;28;20234;-46
2021/01/21 07:25:32;;;;;;;1.13;0.70;;;;;;;;;;5109023;28;20249;-46
2021/01/21 07:27:58;;;;;;;0.95;0.65;;;;;;;;;;5093220;28;20174;-47
2021/01/21 07:30:26;;;;;;;0.90;0.60;;;;;;;;;;5092997;28;20178;-47
2021/01/21 07:33:10;;;;;;;1.13;0.95;;;;;;;;;;5096435;28;20201;-46
2021/01/21 07:35:38;;;;;;;1.98;0.95;;;;;;;;;;5096687;28;20217;-46
2021/01/21 07:38:05;;;;;;;0.82;0.80;;;;;;;;;;5097503;28;20198;-46
2021/01/21 07:40:52;;;;;;;1.15;0.60;;;;;;;;;;5085434;28;20178;-46
2021/01/21 07:43:18;;;;;;;0.70;0.68;;;;;;;;;;5096999;28;20185;-46
2021/01/21 07:45:44;;;;;;;1.38;0.82;;;;;;;;;;5096699;28;20694;-46
2021/01/21 07:48:24;;;;;;;0.75;0.63;;;;;;;;;;5097103;28;20227;-46
2021/01/21 07:50:50;;;;;;;0.85;0.80;;;;;;;;;;5097647;28;20187;-46
2021/01/21 07:53:18;;;;;;;0.60;0.60;;;;;;;;;;5087074;28;20319;-46
2021/01/21 07:55:44;;;;;;;1.15;0.60;;;;;;;;;;5096488;28;20190;-47
2021/01/21 07:58:16;;;;;;;0.90;0.70;;;;;;;;;;5096907;28;20178;-45
2021/01/21 08:00:42;;;;;;;2.35;0.80;;;;;;;;;;5097104;28;20166;-46
2021/01/21 08:03:08;;;;;;;0.95;0.70;;;;;;;;;;5080725;28;20446;-46
2021/01/21 08:05:34;;;;;;;2.55;0.70;;;;;;;;;;5075941;28;20174;-46
2021/01/21 08:08:03;;;;;;;0.70;0.60;;;;;;;;;;5077644;28;20236;-47
2021/01/21 08:10:47;;;;;;;0.85;0.70;;;;;;;;;;5076052;28;20185;-46
2021/01/21 08:13:17;;;;;;;0.80;0.57;;;;;;;;;;5088355;28;20806;-46
2021/01/21 08:15:44;;;;;;;2.42;0.55;;;;;;;;;;5075985;28;20195;-46
2021/01/21 08:18:15;;;;;;;1.67;0.60;;;;;;;;;;5085638;28;20196;-46
2021/01/21 08:20:41;;;;;;;1.40;0.60;;;;;;;;;;5110328;28;20185;-46
2021/01/21 08:23:11;;;;;;;0.77;0.70;;;;;;;;;;5116672;28;20544;-46
2021/01/21 08:25:41;;;;;;;3.75;0.90;;;;;;;;;;5116320;28;20169;-46
2021/01/21 08:28:08;;;;;;;1.45;0.75;;;;;;;;;;5091587;28;20190;-46
2021/01/21 08:30:34;;;;;;;2.28;0.73;;;;;;;;;;5090069;28;20186;-47
2021/01/21 08:33:12;;;;;;;0.57;0.57;;;;;;;;;;5083180;28;20197;-47
2021/01/21 08:35:50;;;;;;;1.30;0.80;;;;;;;;;;5095508;28;20204;-46
2021/01/21 08:38:18;;;;;;;0.60;0.60;;;;;;;;;;5082310;28;20219;-45
2021/01/21 08:40:44;;;;;;;0.80;0.77;;;;;;;;;;5080156;28;20220;-46
2021/01/21 08:43:10;;;;;;;0.60;0.60;;;;;;;;;;5084292;28;20580;-45
2021/01/21 08:45:37;;;;;;;1.08;0.70;;;;;;;;;;5095040;28;20189;-46
2021/01/21 08:48:03;;;;;;;0.73;0.63;;;;;;;;;;5090928;28;20194;-46
2021/01/21 08:50:40;;;;;;;0.85;0.60;;;;;;;;;;5093918;28;20276;-46
2021/01/21 08:53:09;;;;;;;0.70;0.70;;;;;;;;;;5081675;28;20189;-46
2021/01/21 08:55:40;;;;;;;1.20;0.80;;;;;;;;;;5073744;28;20217;-46
2021/01/21 08:58:07;;;;;;;0.80;0.70;;;;;;;;;;5094101;28;20170;-46
2021/01/21 09:00:34;;;;;;;0.68;0.68;;;;;;;;;;5094905;28;20185;-46
2021/01/21 09:03:00;;;;;;;1.65;0.82;;;;;;;;;;5095677;28;20158;-47
2021/01/21 09:05:26;;;;;;;0.95;0.85;;;;;;;;;;5088080;28;20713;-46
2021/01/21 09:08:01;;;;;;;1.67;1.00;;;;;;;;;;5075323;28;20275;-46
2021/01/21 09:10:35;;;;;;;3.63;1.02;;;;;;;;;;5084173;28;20258;-46
2021/01/21 09:13:02;;;;;;;0.80;0.70;;;;;;;;;;5095415;28;20564;-45
2021/01/21 09:15:28;;;;;;;1.45;0.90;;;;;;;;;;5094096;28;20198;-46
2021/01/21 09:18:06;;;;;;;0.85;0.75;;;;;;;;;;5095328;28;20170;-46
2021/01/21 09:20:32;;;;;;;1.38;0.80;;;;;;;;;;5107472;28;20185;-46
2021/01/21 09:23:11;;;;;;;1.27;0.80;;;;;;;;;;5103105;28;20185;-46
2021/01/21 09:25:37;;;;;;;1.50;0.70;;;;;;;;;;5094615;28;20583;-46
2021/01/21 09:28:03;;;;;;;3.55;0.80;;;;;;;;;;5095206;28;20178;-46
2021/01/21 09:30:29;;;;;;;1.52;0.70;;;;;;;;;;5094984;28;20197;-46
2021/01/21 09:32:55;;;;;;;1.10;0.63;;;;;;;;;;5095127;28;20320;-46
2021/01/21 09:35:22;;;;;;;0.80;0.80;;;;;;;;;;5094128;28;20217;-46
2021/01/21 09:37:49;;;;;;;3.30;0.90;;;;;;;;;;5095163;28;20181;-46
2021/01/21 09:40:22;;;;;;;1.38;0.80;;;;;;;;;;5094309;28;20259;-47
2021/01/21 09:42:49;;;;;;;1.00;0.70;;;;;;;;;;5094918;28;20173;-46
2021/01/21 09:45:15;;;;;;;1.00;0.70;;;;;;;;;;5094163;28;20231;-46
2021/01/21 09:47:41;;;;;;;0.80;0.68;;;;;;;;;;5094918;28;20493;-47
2021/01/21 09:50:08;;;;;;;1.40;0.80;;;;;;;;;;5096016;28;20189;-47
2021/01/21 09:52:35;;;;;;;0.93;0.75;;;;;;;;;;5082973;28;20178;-46
2021/01/21 09:55:01;;;;;;;0.70;0.70;;;;;;;;;;5073501;28;20423;-46
2021/01/21 09:57:27;;;;;;;2.03;1.10;;;;;;;;;;5074367;28;20178;-46
2021/01/21 09:59:53;;;;;;;1.00;0.75;;;;;;;;;;5106102;28;20184;-46
2021/01/21 10:02:20;;;;;;;1.73;0.82;;;;;;;;;;5114732;28;20185;-46
2021/01/21 10:04:46;;;;;;;0.90;0.70;;;;;;;;;;5114311;28;20217;-46
2021/01/21 10:07:12;;;;;;;2.30;0.80;;;;;;;;;;5114665;28;20180;-46
2021/01/21 10:09:38;;;;;;;2.17;0.80;;;;;;;;;;5114761;28;20184;-46
2021/01/21 10:12:04;;;;;;;1.00;0.88;;;;;;;;;;5114749;28;20249;-46
2021/01/21 10:14:31;;;;;;;1.20;0.80;;;;;;;;;;5113697;28;20462;-47
2021/01/21 10:16:57;;;;;;;1.20;0.90;;;;;;;;;;5086975;28;20288;-46
2021/01/21 10:19:24;;;;;;;1.00;0.80;;;;;;;;;;5077779;28;20181;-46
2021/01/21 10:21:50;;;;;;;1.77;1.30;;;;;;;;;;5086005;28;20901;-46
2021/01/21 10:24:16;;;;;;;1.10;1.00;;;;;;;;;;5074136;28;20178;-46
2021/01/21 10:26:42;;;;;;;1.88;1.30;;;;;;;;;;5083570;28;20236;-46
2021/01/21 10:29:08;;;;;;;1.95;1.13;;;;;;;;;;5093735;28;20193;-46
2021/01/21 10:31:35;;;;;;;2.05;1.20;;;;;;;;;;5093410;28;20185;-47
2021/01/21 10:34:02;;;;;;;1.45;1.00;;;;;;;;;;5091990;28;20184;-47
2021/01/21 10:36:28;;;;;;;1.13;1.02;;;;;;;;;;5073751;28;20206;-46
2021/01/21 10:38:54;;;;;;;2.75;1.23;;;;;;;;;;5080404;28;20188;-46
2021/01/21 10:41:20;;;;;;;1.25;1.00;;;;;;;;;;5093589;28;20209;-46
2021/01/21 10:43:46;;;;;;;3.42;1.40;;;;;;;;;;5075203;28;20620;-46
2021/01/21 10:46:12;;;;;;;1.20;1.10;;;;;;;;;;5074024;28;20187;-46
2021/01/21 10:48:38;;;;;;;1.65;1.45;;;;;;;;;;5074179;28;20178;-46
2021/01/21 10:51:04;;;;;;;1.35;1.10;;;;;;;;;;5096462;28;20209;-47
2021/01/21 10:53:30;;;;;;;1.25;1.15;;;;;;;;;;5090233;28;20224;-47
2021/01/21 10:55:56;;;;;;;2.78;1.00;;;;;;;;;;5092372;28;20206;-47
2021/01/21 10:58:22;;;;;;;1.58;1.30;;;;;;;;;;5093365;28;20231;-46
2021/01/21 11:00:48;;;;;;;1.10;1.00;;;;;;;;;;5093966;28;20166;-46
2021/01/21 11:03:15;;;;;;;1.70;1.08;;;;;;;;;;5078698;28;20174;-46
2021/01/21 11:05:41;;;;;;;1.30;1.13;;;;;;;;;;5073045;28;20265;-46
2021/01/21 11:08:08;;;;;;;1.48;1.20;;;;;;;;;;5093070;28;20247;-46
2021/01/21 11:10:34;;;;;;;1.98;1.00;;;;;;;;;;5097608;28;20188;-46
2021/01/21 11:13:00;;;;;;;1.10;1.00;;;;;;;;;;5085336;28;20565;-46
2021/01/21 11:15:26;;;;;;;1.08;1.00;;;;;;;;;;5076600;28;20203;-46
2021/01/21 11:17:52;;;;;;;2.05;1.10;;;;;;;;;;5077646;28;20272;-47
2021/01/21 11:20:18;;;;;;;1.35;1.20;;;;;;;;;;5101299;28;20237;-46
2021/01/21 11:22:44;;;;;;;2.38;1.10;;;;;;;;;;5106739;28;20185;-46
2021/01/21 11:25:11;;;;;;;1.75;1.10;;;;;;;;;;5097262;28;20256;-46
2021/01/21 11:27:37;;;;;;;2.75;1.10;;;;;;;;;;5096095;28;20501;-46
2021/01/21 11:30:05;;;;;;;1.70;1.08;;;;;;;;;;5097622;28;20189;-46
2021/01/21 11:32:31;;;;;;;1.45;1.30;;;;;;;;;;5089152;28;20235;-46
2021/01/21 11:34:56;;;;;;;1.40;1.30;;;;;;;;;;5076415;28;20186;-47
2021/01/21 11:37:22;;;;;;;1.45;1.20;;;;;;;;;;5085253;28;20592;-46
2021/01/21 11:39:49;;;;;;;1.58;0.98;;;;;;;;;;5089782;28;20258;-46
2021/01/21 11:42:15;;;;;;;1.33;1.10;;;;;;;;;;5081660;28;20185;-46
2021/01/21 11:44:41;;;;;;;1.38;1.27;;;;;;;;;;5094981;28;20231;-46
2021/01/21 11:47:07;;;;;;;1.10;1.00;;;;;;;;;;5090616;28;20197;-46
2021/01/21 11:49:33;;;;;;;1.30;1.20;;;;;;;;;;5097412;28;20185;-46
2021/01/21 11:51:59;;;;;;;1.92;1.10;;;;;;;;;;5091351;28;20215;-46
2021/01/21 11:54:25;;;;;;;1.98;1.20;;;;;;;;;;5077927;28;20209;-46
2021/01/21 11:56:51;;;;;;;1.60;0.98;;;;;;;;;;5090964;28;20282;-46
2021/01/21 11:59:17;;;;;;;2.17;1.23;;;;;;;;;;5088926;28;20182;-46
2021/01/21 12:01:43;;;;;;;1.25;1.15;;;;;;;;;;5087416;28;20182;-46
2021/01/21 12:04:09;;;;;;;1.27;0.95;;;;;;;;;;5076974;28;20174;-46
2021/01/21 12:06:35;;;;;;;1.20;1.10;;;;;;;;;;5081798;28;20528;-46
2021/01/21 12:09:05;;;;;;;1.70;0.93;;;;;;;;;;5076442;28;20435;-46
2021/01/21 12:11:32;;;;;;;0.95;0.88;;;;;;;;;;5089062;28;20200;-47
2021/01/21 12:13:58;;;;;;;1.27;1.17;;;;;;;;;;5075921;28;20190;-47
2021/01/21 12:16:24;;;;;;;1.70;1.10;;;;;;;;;;5075012;28;20596;-47
2021/01/21 12:18:50;;;;;;;2.33;0.90;;;;;;;;;;5083836;28;20178;-47
2021/01/21 12:21:16;;;;;;;2.08;1.13;;;;;;;;;;5089643;28;20477;-46
2021/01/21 12:23:42;;;;;;;1.33;0.90;;;;;;;;;;5079165;28;20251;-46
2021/01/21 12:26:08;;;;;;;1.33;1.10;;;;;;;;;;5075770;28;20182;-46
2021/01/21 12:28:35;;;;;;;1.17;0.77;;;;;;;;;;5093561;28;20189;-47
2021/01/21 12:31:01;;;;;;;1.10;0.93;;;;;;;;;;5096286;28;20247;-46
2021/01/21 12:33:27;;;;;;;1.30;0.85;;;;;;;;;;5093635;28;20186;-46
2021/01/21 12:35:54;;;;;;;1.10;0.95;;;;;;;;;;5077530;28;20260;-47
2021/01/21 12:38:20;;;;;;;1.52;1.10;;;;;;;;;;5078928;28;20585;-46
2021/01/21 12:40:46;;;;;;;0.95;0.90;;;;;;;;;;5093065;28;20228;-46
2021/01/21 12:43:12;;;;;;;1.75;0.70;;;;;;;;;;5092303;28;20170;-46
2021/01/21 12:45:40;;;;;;;2.00;0.90;;;;;;;;;;5082649;28;20632;-46
2021/01/21 12:48:07;;;;;;;1.10;1.00;;;;;;;;;;5077956;28;20193;-46
2021/01/21 12:50:33;;;;;;;2.28;1.17;;;;;;;;;;5084218;28;20220;-46
2021/01/21 12:52:59;;;;;;;1.23;0.90;;;;;;;;;;5088269;28;20272;-46
2021/01/21 12:55:25;;;;;;;6.70;1.50;;;;;;;;;;5084514;28;20199;-46
2021/01/21 12:57:51;;;;;;;6.05;1.52;;;;;;;;;;5083000;28;20561;-46
2021/01/21 13:00:17;;;;;;;4.40;1.40;;;;;;;;;;5093711;28;20217;-46
2021/01/21 13:02:43;;;;;;;3.05;1.20;;;;;;;;;;5092905;28;20261;-46
2021/01/21 13:05:09;;;;;;;3.55;1.30;;;;;;;;;;5088931;28;20178;-46
2021/01/21 13:07:35;;;;;;;1.75;1.10;;;;;;;;;;5085439;28;20224;-46
2021/01/21 13:10:01;;;;;;;3.85;1.13;;;;;;;;;;5086163;28;20533;-46
2021/01/21 13:12:27;;;;;;;1.90;1.13;;;;;;;;;;5088200;28;20198;-47
2021/01/21 13:14:53;;;;;;;3.38;1.15;;;;;;;;;;5074495;28;20554;-47
2021/01/21 13:17:19;;;;;;;1.92;1.00;;;;;;;;;;5075764;28;20255;-47
2021/01/21 13:19:45;;;;;;;7.18;1.30;;;;;;;;;;5098467;28;20241;-46
2021/01/21 13:22:11;;;;;;;5.55;1.65;;;;;;;;;;5108159;28;20186;-47
2021/01/21 13:24:37;;;;;;;4.10;1.20;;;;;;;;;;5080904;28;20190;-47
2021/01/21 13:27:03;;;;;;;3.42;1.25;;;;;;;;;;5076473;28;20254;-47
2021/01/21 13:29:29;;;;;;;1.50;1.00;;;;;;;;;;5082282;28;20192;-46
2021/01/21 13:31:55;;;;;;;4.38;1.30;;;;;;;;;;5080146;28;20182;-46
2021/01/21 13:34:21;;;;;;;3.10;1.00;;;;;;;;;;5082416;28;20514;-46
2021/01/21 13:36:47;;;;;;;2.63;1.23;;;;;;;;;;5085054;28;20213;-46
2021/01/21 13:39:14;;;;;;;4.63;1.73;;;;;;;;;;5089644;28;20193;-46
2021/01/21 13:41:40;;;;;;;1.73;0.93;;;;;;;;;;5086710;28;20178;-46
2021/01/21 13:44:07;;;;;;;6.32;1.33;;;;;;;;;;5077466;28;20247;-46
2021/01/21 13:46:33;;;;;;;3.38;1.08;;;;;;;;;;5078350;28;20290;-46
2021/01/21 13:48:59;;;;;;;2.50;1.20;;;;;;;;;;5081125;28;20182;-46
2021/01/21 13:51:25;;;;;;;3.25;1.23;;;;;;;;;;5113304;28;20465;-46
2021/01/21 13:53:51;;;;;;;2.95;1.00;;;;;;;;;;5078365;28;20179;-46
2021/01/21 13:56:17;;;;;;;4.97;1.13;;;;;;;;;;5077655;28;20236;-46
2021/01/21 13:58:43;;;;;;;1.98;1.20;;;;;;;;;;5081656;28;20181;-46
2021/01/21 14:01:09;;;;;;;2.38;1.45;;;;;;;;;;5095170;28;20619;-46
2021/01/21 14:03:37;;;;;;;3.00;1.23;;;;;;;;;;5089764;28;20186;-46
2021/01/21 14:06:03;;;;;;;1.40;1.00;;;;;;;;;;5094322;28;20181;-46
2021/01/21 14:08:29;;;;;;;2.38;0.98;;;;;;;;;;5088248;28;20224;-47
2021/01/21 14:10:55;;;;;;;2.75;1.00;;;;;;;;;;5074060;28;20194;-47
2021/01/21 14:13:21;;;;;;;3.17;1.10;;;;;;;;;;5084570;28;20197;-46
2021/01/21 14:15:47;;;;;;;2.50;1.08;;;;;;;;;;5094336;28;20201;-46
2021/01/21 14:18:13;;;;;;;3.40;1.30;;;;;;;;;;5092158;28;20209;-46
2021/01/21 14:20:41;;;;;;;1.52;1.00;;;;;;;;;;5093008;28;20616;-46
2021/01/21 14:23:09;;;;;;;1.75;1.10;;;;;;;;;;5082943;28;20185;-46
2021/01/21 14:25:36;;;;;;;3.55;0.95;;;;;;;;;;5093208;28;20177;-46
2021/01/21 14:28:02;;;;;;;1.75;0.90;;;;;;;;;;5093829;28;20220;-47
2021/01/21 14:30:28;;;;;;;3.75;1.20;;;;;;;;;;5082083;28;20186;-46
2021/01/21 14:32:54;;;;;;;1.70;0.95;;;;;;;;;;5089288;28;20201;-47
2021/01/21 14:35:20;;;;;;;5.55;1.33;;;;;;;;;;5080404;28;20267;-47
2021/01/21 14:37:46;;;;;;;1.65;1.15;;;;;;;;;;5081572;28;20324;-47
2021/01/21 14:40:13;;;;;;;1.40;1.10;;;;;;;;;;5075252;28;20546;-46
2021/01/21 14:42:39;;;;;;;3.80;1.10;;;;;;;;;;5083688;28;20190;-46
2021/01/21 14:45:05;;;;;;;1.40;0.80;;;;;;;;;;5081810;28;20224;-46